Tiempo atmosférico en la estación meteorológica de Ólvega, Soria (1039 m.)



Fecha
DESCASC
Temp. máxima en grados centígrados (hora)
DESCASC
Temp. mínima en grados centígrados (hora)
DESCASC
Temp. media en grados centígrados
DESCASC
Racha de viento máxima en m/sg (hora)
DESCASC
Velocidad máxima media en intervalos de 10 minutos(hora)
DESCASC
Precipitaciones diarias en mm
DESCASC
Precipitaciones de 00:00 a 06:00 en mm
DESCASC
Precipitaciones de 06:00 a 12:00 en mm
DESCASC
Precipitaciones de 12:00 a 18:00 en mm
DESCASC
Precipitaciones de 18:00 a 24:00 en mm
DESCASC
22-01-2020 7.2 (15:00) -0.8 (02:50) 3.2 9.72 (00:10) 6.11 (00:10) 20 1.6 4 13.2 1.2
21-01-2020 1.2 (20:20) -2.9 (01:30) -0.9 12.22 (19:40) 7.22 (21:40) 16.2 0 0 0 16.2
20-01-2020 1.3 (15:10) -4.1 (08:00) -1.4 16.11 (00:40) 8.33 (00:40) 0 0 0 0 0
19-01-2020 3 (14:00) -2.4 (-00:0) 0.3 21.67 (15:20) 13.33 (14:10) 4.6 1 3.6 0 0
18-01-2020 6.5 (16:00) -1.1 (-00:0) 2.7 16.39 (16:50) 9.72 (20:00) 4.4 0 0 0 4.4
17-01-2020 10.1 (14:10) -1.5 (-00:0) 4.3 15.83 (00:30) 9.44 (00:20) 1 0.6 0.4 0 0
16-01-2020 10.3 (14:50) 3.9 (00:00) 7.1 16.11 (22:20) 8.89 (22:40) 0 0 0 0 0
15-01-2020 8.2 (15:50) 1.1 (00:00) 4.6 15.56 (04:50) 7.78 (04:40) 0 0 0 0 0
14-01-2020 6.7 (16:00) -0.2 (00:00) 3.2 11.39 (12:20) 6.67 (00:30) 0 0 0 0 0
13-01-2020 9.7 (13:40) -0.9 (-00:0) 4.4 10.56 (16:40) 5.56 (10:10) 0 0 0 0 0
12-01-2020 12.2 (11:40) -3.9 (08:10) 4.1 6.11 (14:50) 3.61 (12:20) 0 0 0 0 0
11-01-2020 12.9 (14:00) -0.9 (-00:0) 6 5.83 (00:10) 3.06 (00:10) 0 0 0 0 0
10-01-2020 7 (00:00) 1.3 (00:00) 4.1 13.06 (13:40) 7.78 (13:50) 5.4 5.4 0 0 0
09-01-2020 12.4 (15:10) 4.6 (00:00) 8.5 9.44 (14:00) 5.56 (22:50) 0 0 0 0 0
08-01-2020 12.8 (10:40) 1.9 (00:00) 7.4 5.56 (11:50) 3.61 (11:50) 0 0 0 0 0
07-01-2020 17.8 (16:10) -1.4 (-00:0) 8.2 4.17 (15:00) 2.5 (15:00) 0 0 0 0 0
06-01-2020 16.9 (16:00) 0.4 (00:00) 8.6 6.11 (12:10) 3.61 (05:00) 0 0 0 0 0
05-01-2020 17.6 (15:20) -1.5 (-00:0) 8.1 3.89 (19:50) 2.22 (12:10) 0 0 0 0 0
04-01-2020 7.9 (15:30) -0.4 (00:00) 3.8 8.33 (14:20) 5.28 (13:40) 0 0 0 0 0
03-01-2020 12 (12:30) 1.5 (00:00) 6.8 9.17 (01:10) 4.72 (01:40) 0 0 0 0 0
02-01-2020 15 (13:10) 1.8 (00:00) 8.4 8.33 (13:20) 5 (22:30) 0 0 0 0 0
01-01-2020 21.3 (14:30) -0.6 (-00:0) 10.3 4.72 (19:30) 3.33 (19:30) 0 0 0 0 0
31-12-2019 17.3 (11:40) 0.5 (00:00) 8.9 3.61 (13:30) 2.5 (13:30) 0 0 0 0 0
30-12-2019 -- (--) -- (--) -- -- (--) -- (--) -- 0 0 0 --
29-12-2019 19.6 (14:10) -1 (-00:0) 9.3 3.33 (22:40) 2.22 (22:40) 0 0 0 0 0
28-12-2019 17.9 (15:20) -0.3 (00:00) 8.8 4.17 (14:10) 2.78 (05:30) 0 0 0 0 0
27-12-2019 18.8 (13:20) -1.5 (-00:0) 8.6 2.78 (01:20) 2.22 (20:10) 0 0 0 0 0
26-12-2019 12.4 (00:50) -0.4 (00:00) 6 10 (06:00) 6.11 (06:00) 0 0 0 0 0
25-12-2019 18.7 (12:10) 4.8 (00:00) 11.8 8.33 (12:40) 4.44 (12:50) 0 0 0 0 0

Gráficas

Temp. máximas Temp. mínimas Temp. medias Precipitaciones Rachas de viento máximas Velocidades máximas media en intervalos de 10 minutos

Datos horarios

Fecha y hora oficial Temperatura (ºC) Velocidad del viento (km/h) Dirección del viento Racha (km/h) Dirección de racha Precipitación (mm) Presión (hPa) Tendencia (hPa) Humedad (%)
2020-01-23 23:00:00 -- -- -- -- -- -- -- -- --
2020-01-23 22:00:00 2.8 17 Sudeste 27 Sudeste 0 -- -- 89
2020-01-23 21:00:00 2.5 19 Sudeste 27 Sudeste 0 -- -- 93
2020-01-23 20:00:00 2.1 8 Sudeste 19 Sudeste 0 -- -- 97
2020-01-23 19:00:00 1.9 2 Norte 9 Sudeste 0 -- -- 92
2020-01-23 18:00:00 2.5 0 Calma 8 Oeste 0 -- -- 88
2020-01-23 17:00:00 4.9 4 Sudeste 14 Sudeste 0 -- -- 76
2020-01-23 16:00:00 7.8 5 Sudeste 17 Sudeste 0 -- -- 67
2020-01-23 15:00:00 6.3 5 Sur 17 Sur 0 -- -- 71
2020-01-23 14:00:00 5.5 10 Sur 19 Sur 0 -- -- 75
2020-01-23 13:00:00 5.3 6 Sudoeste 17 Sudeste 0.8 -- -- 77
2020-01-23 12:00:00 4.3 7 Sur 18 Sur 1.4 -- -- 81
2020-01-23 11:00:00 2.8 5 Sur -- -- 0 -- -- 90
2020-01-23 10:00:00 -- -- -- -- -- 0.2 -- -- --
2020-01-23 09:00:00 -- -- -- -- -- 0 -- -- --
2020-01-23 08:00:00 -- -- -- -- -- 0.2 -- -- --
2020-01-23 07:00:00 -- -- -- -- -- 0 -- -- --
2020-01-23 06:00:00 -- -- -- -- -- 0 -- -- --
2020-01-23 05:00:00 -- -- -- -- -- 0 -- -- --
2020-01-23 04:00:00 -- -- -- -- -- 0 -- -- --
2020-01-23 03:00:00 -- -- -- -- -- 0 -- -- --
2020-01-23 02:00:00 0.6 4 Sudoeste 22 Este 0 -- -- 98
2020-01-23 01:00:00 1.3 8 Sudeste 16 Sudeste 0.2 -- -- 99
2020-01-23 00:00:00 1.1 3 Sudeste 5 Sudeste 0.2 -- -- 99
2020-01-22 23:00:00 0.8 0 Calma 5 Sudoeste 0.2 -- -- 98
2020-01-22 22:00:00 1.1 0 Calma 6 Oeste 0 -- -- 98
2020-01-22 21:00:00 1.1 3 Este 5 Sudeste 0.2 -- -- 99
2020-01-22 20:00:00 1 0 Calma 5 Sur 0.4 -- -- 98
2020-01-22 19:00:00 0.9 0 Calma 4 Nordeste 0.2 -- -- 98
2020-01-22 18:00:00 1.3 4 Sudoeste 6 Sudoeste 0.6 -- -- 97
2020-01-22 17:00:00 2.6 0 Calma 5 Sudoeste 1.4 -- -- 93
2020-01-22 16:00:00 3.8 0 Calma 7 Sudoeste 2.4 -- -- 92
2020-01-22 15:00:00 7.2 0 Calma 4 Nordeste 3.4 -- -- 84
2020-01-22 14:00:00 4.8 0 Calma 4 Sudoeste 2.8 -- -- 93
2020-01-22 13:00:00 4.1 0 Calma 5 Sudoeste 2.6 -- -- 93
2020-01-22 12:00:00 4.1 0 Calma 4 Sudoeste 2 -- -- 95
2020-01-22 11:00:00 1.9 0 Calma 4 Sur 1.2 -- -- 96
2020-01-22 10:00:00 0.6 3 Sudeste 4 Sudeste 0.4 -- -- 98
2020-01-22 09:00:00 0.3 0 Calma 3 Noroeste 0.2 -- -- 98
2020-01-22 08:00:00 0.1 0 Calma -- -- 0 -- -- 99
2020-01-22 07:00:00 0 0 Calma 2 Noroeste 0.2 -- -- 99
2020-01-22 06:00:00 0 0 Calma -- -- 0 -- -- 99
2020-01-22 05:00:00 -0.2 0 Calma -- -- 0 -- -- 99
2020-01-22 04:00:00 -0.3 0 Calma -- -- 0.2 -- -- 99
2020-01-22 03:00:00 -0.8 0 Calma -- -- 0.2 -- -- 98
2020-01-22 02:00:00 -0.5 15 Norte 33 Noroeste 0.4 -- -- 98
2020-01-22 01:00:00 0.1 10 Noroeste 35 Noroeste 0.8 -- -- 98
2020-01-22 00:00:00 0.4 21 Noroeste 41 Oeste 2 -- -- 98
2020-01-21 23:00:00 0.6 22 Noroeste 40 Noroeste 2.8 -- -- 98
2020-01-21 22:00:00 0.5 22 Noroeste 43 Norte 3.4 -- -- 98
2020-01-21 21:00:00 1.2 19 Norte 38 Norte 4.8 -- -- 98
2020-01-21 20:00:00 0.9 24 Norte 44 Norte 3.2 -- -- 99
2020-01-21 19:00:00 0.2 20 Norte 39 Norte 0 -- -- 99
2020-01-21 18:00:00 0.3 19 Norte 32 Norte 0 -- -- 98
2020-01-21 17:00:00 -0.1 13 Norte 24 Norte 0 -- -- 98
2020-01-21 16:00:00 -0.2 9 Norte 17 Noroeste 0 -- -- 97
2020-01-21 15:00:00 -0.3 11 Norte 17 Norte 0 -- -- 97
2020-01-21 14:00:00 -0.5 9 Noroeste 17 Noroeste 0 -- -- 96
2020-01-21 13:00:00 -0.6 7 Noroeste 24 Noroeste 0 -- -- 96
2020-01-21 12:00:00 -0.8 11 Norte 24 Noroeste 0 -- -- 96
2020-01-21 11:00:00 -1.4 11 Noroeste 19 Norte 0 -- -- 96
2020-01-21 10:00:00 -1.6 5 Noroeste 15 Norte 0 -- -- 96
2020-01-21 09:00:00 -1.9 6 Norte 33 Norte 0 -- -- 96
2020-01-21 08:00:00 -1.8 13 Norte 26 Nordeste 0 -- -- 96
2020-01-21 07:00:00 -1.4 4 Noroeste 14 Nordeste 0 -- -- 96
2020-01-21 06:00:00 -1.3 7 Norte 13 Nordeste 0 -- -- 96
2020-01-21 05:00:00 -1.4 5 Sudeste 21 Nordeste 0 -- -- 95
2020-01-21 04:00:00 -2.2 14 Nordeste 22 Nordeste 0 -- -- 94
2020-01-21 03:00:00 -2.8 11 Nordeste 23 Nordeste 0 -- -- 93
2020-01-21 02:00:00 -2.8 13 Nordeste 20 Nordeste 0 -- -- 89
2020-01-21 01:00:00 -2.3 14 Nordeste 27 Nordeste 0 -- -- 79
2020-01-21 00:00:00 -2.4 12 Nordeste 29 Nordeste 0 -- -- 78
2020-01-20 23:00:00 -2.7 19 Nordeste 27 Nordeste 0 -- -- 78
2020-01-20 22:00:00 -2.4 19 Nordeste 33 Nordeste 0 -- -- 75
2020-01-20 21:00:00 -2.9 15 Nordeste 31 Nordeste 0 -- -- 86
2020-01-20 20:00:00 -1.9 17 Nordeste 26 Nordeste 0 -- -- 71
2020-01-20 19:00:00 -1.8 14 Norte 27 Nordeste 0 -- -- 69
2020-01-20 18:00:00 -1.3 14 Nordeste 26 Norte 0 -- -- 64
2020-01-20 17:00:00 -1.1 17 Norte 29 Norte 0 -- -- 64
2020-01-20 16:00:00 0.1 19 Norte 42 Norte 0 -- -- 57
2020-01-20 15:00:00 0.9 27 Nordeste 42 Nordeste 0 -- -- 54
2020-01-20 14:00:00 0.5 22 Norte 37 Norte 0 -- -- 56
2020-01-20 13:00:00 -1 18 Norte 30 Norte 0 -- -- 61
2020-01-20 12:00:00 -1.7 10 Norte 27 Nordeste 0 -- -- 63
2020-01-20 11:00:00 -2.4 16 Norte 26 Nordeste 0 -- -- 65
2020-01-20 10:00:00 -2.5 14 Norte 23 Nordeste 0 -- -- 67
2020-01-20 09:00:00 -3.9 6 Norte 18 Nordeste 0 -- -- 72
2020-01-20 08:00:00 -4.1 7 Norte 32 Norte 0 -- -- 73
2020-01-20 07:00:00 -3.8 13 Norte 36 Norte 0 -- -- 71
2020-01-20 06:00:00 -3.5 22 Norte 50 Norte 0 -- -- 69
2020-01-20 05:00:00 -3.4 26 Norte 41 Norte 0 -- -- 70
2020-01-20 04:00:00 -3.3 23 Norte 41 Norte 0 -- -- 72
2020-01-20 03:00:00 -3.3 22 Norte 44 Norte 0 -- -- 74
2020-01-20 02:00:00 -3.1 23 Norte 39 Norte 0 -- -- 75
2020-01-20 01:00:00 -2.8 24 Norte 58 Norte 0 -- -- 74
2020-01-20 00:00:00 -2.4 29 Norte 48 Norte 0 -- -- 72
2020-01-19 23:00:00 -2.1 31 Norte 52 Norte 0 -- -- 71
2020-01-19 22:00:00 -1.7 34 Norte 55 Norte 0 -- -- 70
2020-01-19 21:00:00 -1.4 33 Norte 57 Norte 0 -- -- 68
2020-01-19 20:00:00 -1 34 Norte 59 Norte 0 -- -- 68
2020-01-19 19:00:00 -0.8 30 Norte 62 Norte 0 -- -- 67
2020-01-19 18:00:00 -0.2 39 Norte 68 Norte 0 -- -- 66
2020-01-19 17:00:00 1 46 Norte 71 Norte 0 -- -- 61
2020-01-19 16:00:00 2.6 37 Norte 78 Norte 0 -- -- 57
2020-01-19 15:00:00 2.6 45 Norte 75 Norte 0 -- -- 58
2020-01-19 14:00:00 3 43 Norte 69 Norte 0 -- -- 60
2020-01-19 13:00:00 2 40 Norte 65 Noroeste 0 -- -- 64
2020-01-19 12:00:00 1.8 39 Norte 60 Norte 0 -- -- 68
2020-01-19 11:00:00 1.5 29 Norte 58 Noroeste 0 -- -- 75
2020-01-19 10:00:00 0.7 33 Norte 62 Norte 0.2 -- -- 91
2020-01-19 09:00:00 0.6 31 Norte 55 Norte 0.6 -- -- 95
2020-01-19 08:00:00 1.2 22 Norte 48 Norte 1.6 -- -- 95
2020-01-19 07:00:00 1 14 Norte 35 Norte 1.2 -- -- 96
2020-01-19 06:00:00 1.5 21 Norte 35 Norte 0.2 -- -- 94
2020-01-19 05:00:00 1.6 19 Noroeste 31 Noroeste 0.4 -- -- 95
2020-01-19 04:00:00 1 12 Norte 24 Norte 0.4 -- -- 94
2020-01-19 03:00:00 2.2 8 Noroeste 13 Noroeste 0 -- -- 91
2020-01-19 02:00:00 2.1 5 Noroeste 10 Norte 0 -- -- 92
2020-01-19 01:00:00 1.9 5 Noroeste 10 Norte 0 -- -- 92
2020-01-19 00:00:00 1.9 6 Norte 19 Norte 0 -- -- 90
2020-01-18 23:00:00 2.6 9 Norte 26 Noroeste 0 -- -- 87
2020-01-18 22:00:00 3.6 11 Noroeste 29 Sudoeste 0.4 -- -- 84
2020-01-18 21:00:00 4.5 26 Sudoeste 50 Sudoeste 3.8 -- -- 89
2020-01-18 20:00:00 5.9 35 Sur 53 Sur 0.2 -- -- 86
2020-01-18 19:00:00 5.9 24 Sur 46 Sur 0 -- -- 87
2020-01-18 18:00:00 6 23 Sur 57 Sur 0 -- -- 86
2020-01-18 17:00:00 5.8 30 Sur 59 Sudoeste 0 -- -- 87
2020-01-18 16:00:00 6.5 26 Sur 51 Sudeste 0 -- -- 82
2020-01-18 15:00:00 5.6 22 Sudeste 41 Sudeste 0 -- -- 85
2020-01-18 14:00:00 5.7 23 Sudeste 45 Sur 0 -- -- 81
2020-01-18 13:00:00 5.5 17 Sur 38 Sur 0 -- -- 82
2020-01-18 12:00:00 5.6 15 Sur 42 Sudoeste 0 -- -- 80
2020-01-18 11:00:00 5.9 15 Sudeste 36 Sudeste 0 -- -- 76
2020-01-18 10:00:00 3.4 22 Sur 34 Sudeste 0 -- -- 80
2020-01-18 09:00:00 3.1 12 Este 26 Este 0 -- -- 75
2020-01-18 08:00:00 3.4 14 Sudeste 27 Sudeste 0 -- -- 74
2020-01-18 07:00:00 3.8 15 Sudeste 29 Sur 0 -- -- 74
2020-01-18 06:00:00 3 14 Sudeste 24 Sudeste 0 -- -- 77
2020-01-18 05:00:00 3.6 6 Sudeste 17 Sudeste 0 -- -- 73
2020-01-18 04:00:00 3.8 4 Noroeste 16 Sudeste 0 -- -- 71
2020-01-18 03:00:00 2.1 8 Sudeste 21 Sudeste 0 -- -- 77
2020-01-18 02:00:00 1.5 10 Sudeste 18 Sudeste 0 -- -- 80
2020-01-18 01:00:00 -1.1 8 Sudeste 13 Sudeste 0 -- -- 88
2020-01-18 00:00:00 -0.6 8 Sudeste 13 Sudeste 0 -- -- 87
2020-01-17 23:00:00 -1.4 5 Sudeste 9 Sudoeste 0 -- -- 88
2020-01-17 22:00:00 -0.9 3 Sudeste 6 Sudeste 0 -- -- 88
2020-01-17 21:00:00 -0.1 4 Sudeste 6 Sudeste 0 -- -- 87
2020-01-17 20:00:00 1.5 0 Calma 11 Sudoeste 0 -- -- 87
2020-01-17 19:00:00 3.4 3 Norte 25 Oeste 0 -- -- 79
2020-01-17 18:00:00 5.5 13 Oeste 27 Oeste 0 -- -- 61
2020-01-17 17:00:00 6.8 16 Oeste 33 Oeste 0 -- -- 55
2020-01-17 16:00:00 7.5 19 Oeste 35 Noroeste 0 -- -- 53
2020-01-17 15:00:00 8.5 20 Oeste 37 Sudoeste 0 -- -- 51
2020-01-17 14:00:00 9.5 18 Oeste 39 Sudoeste 0 -- -- 56
2020-01-17 13:00:00 8.9 25 Oeste 44 Oeste 0 -- -- 58
2020-01-17 12:00:00 6.2 11 Sudoeste 32 Sudoeste 0.4 -- -- 83
2020-01-17 11:00:00 5.2 11 Sudoeste 33 Sudoeste 0 -- -- 87
2020-01-17 10:00:00 4.6 17 Sudoeste 37 Sudoeste 0 -- -- 88
2020-01-17 09:00:00 4.3 15 Sur 32 Sudoeste 0 -- -- 87
2020-01-17 08:00:00 4.9 15 Sudoeste 37 Sur 0 -- -- 82
2020-01-17 07:00:00 5.2 11 Sur 22 Sudoeste 0 -- -- 81
2020-01-17 06:00:00 5.6 11 Sudoeste 34 Sur 0 -- -- 81
2020-01-17 05:00:00 5 19 Sur 41 Sur 0 -- -- 82
2020-01-17 04:00:00 5.8 22 Sur 39 Sur 0 -- -- 79
2020-01-17 03:00:00 5.8 27 Sur 54 Sur 0 -- -- 80
2020-01-17 02:00:00 6.2 25 Sur 49 Sur 0.6 -- -- 80
2020-01-17 01:00:00 6.4 28 Sur 57 Sur 0 -- -- 77
2020-01-17 00:00:00 7.6 29 Sur 58 Sudoeste 0 -- -- 67
2020-01-16 23:00:00 7.7 29 Sur 58 Sur 0 -- -- 68
2020-01-16 22:00:00 7.7 27 Sur 56 Sur 0 -- -- 69
2020-01-16 21:00:00 7.6 20 Sur 44 Sudeste 0 -- -- 71
2020-01-16 20:00:00 7.8 25 Sur 56 Sudoeste 0 -- -- 70
2020-01-16 19:00:00 8 19 Sur 57 Sur 0 -- -- 70
2020-01-16 18:00:00 8.7 22 Sur 47 Sur 0 -- -- 75
2020-01-16 17:00:00 9.2 25 Sur 48 Sudeste 0 -- -- 74
2020-01-16 16:00:00 9.9 24 Sur 46 Sur 0 -- -- 72
2020-01-16 15:00:00 10.1 25 Sur 45 Sudoeste 0 -- -- 72
2020-01-16 14:00:00 9.9 22 Sur 38 Sur 0 -- -- 74
2020-01-16 13:00:00 9.5 12 Sur 38 Sur 0 -- -- 76
2020-01-16 12:00:00 8.6 12 Sur 38 Sudeste 0 -- -- 81
2020-01-16 11:00:00 8.2 20 Sur 36 Sur 0 -- -- 81
2020-01-16 10:00:00 7.5 20 Sur 41 Sudeste 0 -- -- 84
2020-01-16 09:00:00 6.7 10 Sur 30 Sur 0 -- -- 87
2020-01-16 08:00:00 6.3 15 Sudeste 30 Sudeste 0 -- -- 89
2020-01-16 07:00:00 5.5 14 Sudeste 24 Sudeste 0 -- -- 93
2020-01-16 06:00:00 4.7 11 Sudeste 22 Sudeste 0 -- -- 94
2020-01-16 05:00:00 4.4 6 Sudeste 23 Sudeste 0 -- -- 92
2020-01-16 04:00:00 5 9 Sudoeste 20 Oeste 0 -- -- 88
2020-01-16 03:00:00 6.3 15 Sudeste 27 Sudeste 0 -- -- 83
2020-01-16 02:00:00 5.2 14 Sur 32 Sudeste 0 -- -- 88
2020-01-16 01:00:00 5.2 18 Sudeste 37 Sudeste 0 -- -- 87
2020-01-16 00:00:00 5.8 19 Sur 36 Sur 0 -- -- 84
2020-01-15 23:00:00 5.5 19 Sur 31 Sudeste 0 -- -- 84
2020-01-15 22:00:00 5.4 13 Sur 23 Sudeste 0 -- -- 84
2020-01-15 21:00:00 5.4 13 Sur 35 Sudoeste 0 -- -- 84
2020-01-15 20:00:00 5.1 14 Sur 35 Sur 0 -- -- 83
2020-01-15 19:00:00 6.2 20 Sur 35 Sur 0 -- -- 78
2020-01-15 18:00:00 6.7 14 Sur 32 Sur 0 -- -- 76
2020-01-15 17:00:00 7.4 17 Sur 33 Sur 0 -- -- 73
2020-01-15 16:00:00 8 16 Sur 31 Sur 0 -- -- 71
2020-01-15 15:00:00 7.4 17 Sudeste 29 Sudeste 0 -- -- 76
2020-01-15 14:00:00 6.8 18 Sudeste 26 Sudeste 0 -- -- 77
2020-01-15 13:00:00 6.3 16 Sudeste 36 Sudeste 0 -- -- 78
2020-01-15 12:00:00 5.5 18 Sudeste 30 Sudeste 0 -- -- 80
2020-01-15 11:00:00 4.8 14 Sudeste 26 Sudeste 0 -- -- 81
2020-01-15 10:00:00 3.8 12 Sudeste 34 Sur 0 -- -- 84
2020-01-15 09:00:00 3.2 13 Sudeste 28 Sudeste 0 -- -- 86
2020-01-15 08:00:00 3.4 11 Sudeste 36 Sur 0 -- -- 85
2020-01-15 07:00:00 3.6 25 Sur 43 Sudoeste 0 -- -- 87
2020-01-15 06:00:00 3.6 24 Sur 52 Sur 0 -- -- 88
2020-01-15 05:00:00 3.2 23 Sur 56 Sur 0 -- -- 87
2020-01-15 04:00:00 3.1 24 Sur 45 Sur 0 -- -- 87
2020-01-15 03:00:00 2 19 Sur 36 Sur 0 -- -- 86
2020-01-15 02:00:00 1.5 5 Este 28 Sudeste 0 -- -- 83
2020-01-15 01:00:00 1.1 15 Sudeste 30 Este 0 -- -- 83
2020-01-15 00:00:00 1.3 3 Sudeste 15 Norte 0 -- -- 82
2020-01-14 23:00:00 1.6 9 Norte 33 Sudeste 0 -- -- 82
2020-01-14 22:00:00 2.4 12 Sudeste 30 Sudeste 0 -- -- 75
2020-01-14 21:00:00 2.5 15 Sudeste 28 Sudeste 0 -- -- 76
2020-01-14 20:00:00 2.1 17 Sudeste 27 Sudeste 0 -- -- 78
2020-01-14 19:00:00 2.2 16 Sudeste 32 Sudeste 0 -- -- 79
2020-01-14 18:00:00 2.6 14 Sudeste 27 Sudeste 0 -- -- 77
2020-01-14 17:00:00 5.2 8 Sudeste 28 Oeste 0 -- -- 67
2020-01-14 16:00:00 6.7 5 Sudoeste 24 Este 0 -- -- 63
2020-01-14 15:00:00 4.8 12 Sudeste 30 Sudeste 0 -- -- 68
2020-01-14 14:00:00 3.5 14 Sudoeste 30 Sudoeste 0 -- -- 71
2020-01-14 13:00:00 2.5 19 Sur 41 Sur 0 -- -- 75
2020-01-14 12:00:00 2 20 Sur 35 Sur 0 -- -- 77
2020-01-14 11:00:00 3.4 7 Sur 40 Sudeste 0 -- -- 69
2020-01-14 10:00:00 0.8 13 Sur 35 Sudeste 0 -- -- 81
2020-01-14 09:00:00 0.3 19 Sudeste 37 Sudeste 0 -- -- 82
2020-01-14 08:00:00 0.2 19 Sudeste 30 Sudeste 0 -- -- 82
2020-01-14 07:00:00 1.2 13 Sur 25 Sur 0 -- -- 74
2020-01-14 06:00:00 0.5 4 Sudeste 20 Sur 0 -- -- 76
2020-01-14 05:00:00 1.1 18 Sur 37 Sudeste 0 -- -- 76
2020-01-14 04:00:00 1.6 15 Sudeste 30 Sudeste 0 -- -- 73
2020-01-14 03:00:00 1.9 11 Sudeste 33 Sudeste 0 -- -- 73
2020-01-14 02:00:00 2.1 19 Sudeste 30 Sudeste 0 -- -- 69
2020-01-14 01:00:00 1.4 21 Sudeste 33 Sudeste 0 -- -- 75
2020-01-14 00:00:00 1.6 15 Sudeste 28 Sudeste 0 -- -- 72
2020-01-13 23:00:00 2.2 15 Sudeste 27 Sur 0 -- -- 70
2020-01-13 22:00:00 2.1 8 Sudeste 29 Sur 0 -- -- 68
2020-01-13 21:00:00 3.1 13 Sur 30 Sudeste 0 -- -- 66
2020-01-13 20:00:00 3.6 15 Sudeste 33 Sudeste 0 -- -- 62
2020-01-13 19:00:00 4.7 14 Sur 30 Sudeste 0 -- -- 54
2020-01-13 18:00:00 6.1 11 Sur 30 Sur 0 -- -- 40
2020-01-13 17:00:00 8.1 6 Sur 38 Sudoeste 0 -- -- 38
2020-01-13 16:00:00 8.5 14 Sudoeste 27 Sudoeste 0 -- -- 34
2020-01-13 15:00:00 8.1 8 Sur 23 Sur 0 -- -- 45
2020-01-13 14:00:00 9.2 8 Sudeste 28 Este 0 -- -- 33
2020-01-13 13:00:00 7.2 17 Sudeste 24 Sudeste 0 -- -- 46
2020-01-13 12:00:00 7.3 7 Sudeste 17 Sudeste 0 -- -- 41
2020-01-13 11:00:00 7.1 10 Sudeste 27 Sudeste 0 -- -- 42
2020-01-13 10:00:00 5.8 18 Sudeste 24 Sudeste 0 -- -- 43
2020-01-13 09:00:00 2.5 10 Sudeste 17 Sudeste 0 -- -- 48
2020-01-13 08:00:00 1.8 2 Norte 10 Sudeste 0 -- -- 51
2020-01-13 07:00:00 1.8 3 Oeste 10 Sudoeste 0 -- -- 53
2020-01-13 06:00:00 1.3 4 Sudeste 16 Sur 0 -- -- 55
2020-01-13 05:00:00 0.7 0 Calma 10 Sudeste 0 -- -- 59
2020-01-13 04:00:00 0.6 9 Sudeste 12 Sudeste 0 -- -- 64
2020-01-13 03:00:00 0 6 Sudeste 12 Sudeste 0 -- -- 64
2020-01-13 02:00:00 -0.8 3 Sudeste 10 Sudeste 0 -- -- 67
2020-01-13 01:00:00 -0.1 5 Sudeste 10 Este 0 -- -- 68
2020-01-13 00:00:00 -0.2 4 Sudoeste 18 Sudeste 0 -- -- 64
2020-01-12 23:00:00 1.1 8 Sudeste 17 Sudeste 0 -- -- 62
2020-01-12 22:00:00 -0.5 5 Sudeste 11 Sudeste 0 -- -- 73
2020-01-12 21:00:00 0.9 5 Sur 10 Sudeste 0 -- -- 63
2020-01-12 20:00:00 1.6 2 Sur 10 Sudoeste 0 -- -- 56
2020-01-12 19:00:00 2.6 3 Sudeste 9 Oeste 0 -- -- 52
2020-01-12 18:00:00 4.8 5 Sudoeste 12 Norte 0 -- -- 46
2020-01-12 17:00:00 11.1 5 Norte 19 Nordeste 0 -- -- 27
2020-01-12 16:00:00 11.9 10 Norte 20 Norte 0 -- -- 25
2020-01-12 15:00:00 11.5 12 Norte 22 Norte 0 -- -- 27
2020-01-12 14:00:00 10.8 12 Norte 20 Norte 0 -- -- 26
2020-01-12 13:00:00 10.5 9 Norte 20 Nordeste 0 -- -- 25
2020-01-12 12:00:00 10.5 6 Norte 12 Norte 0 -- -- 26
2020-01-12 11:00:00 9.6 3 Oeste 5 Oeste 0 -- -- 27
2020-01-12 10:00:00 3.7 0 Calma 5 Este 0 -- -- 45
2020-01-12 09:00:00 -3.7 0 Calma 4 Sudeste 0 -- -- 65
2020-01-12 08:00:00 -3.7 2 Sudeste 6 Sudeste 0 -- -- 69
2020-01-12 07:00:00 -3.7 0 Calma 5 Sudeste 0 -- -- 71
2020-01-12 06:00:00 -3.6 2 Sudeste 8 Sudeste 0 -- -- 71
2020-01-12 05:00:00 -3.1 0 Calma 8 Sudeste 0 -- -- 69
2020-01-12 04:00:00 -3 4 Sudeste 8 Sudeste 0 -- -- 70
2020-01-12 03:00:00 -2.7 2 Sur 8 Sudeste 0 -- -- 71
2020-01-12 02:00:00 -2.5 3 Sudeste 10 Sudeste 0 -- -- 73
2020-01-12 01:00:00 -1.5 5 Sudeste 8 Sudeste 0 -- -- 70
2020-01-12 00:00:00 -0.4 3 Sur 10 Sudeste 0 -- -- 69
2020-01-11 23:00:00 -0.5 5 Sudeste 10 Sudeste 0 -- -- 73
2020-01-11 22:00:00 -0.1 6 Sudeste 10 Este 0 -- -- 72
2020-01-11 21:00:00 0.5 4 Sudeste 7 Sudeste 0 -- -- 69
2020-01-11 20:00:00 1 3 Sudeste 10 Sudeste 0 -- -- 70
2020-01-11 19:00:00 0.9 0 Calma 9 Este 0 -- -- 72
2020-01-11 18:00:00 3.5 4 Sudeste 12 Sudoeste 0 -- -- 65
2020-01-11 17:00:00 9.4 7 Sur 12 Sur 0 -- -- 42
2020-01-11 16:00:00 10.3 7 Sudoeste 13 Sudoeste 0 -- -- 40
2020-01-11 15:00:00 11.2 7 Sudoeste 14 Sudoeste 0 -- -- 37
2020-01-11 14:00:00 12.9 0 Calma 7 Nordeste 0 -- -- 29
2020-01-11 13:00:00 8.3 4 Este 8 Este 0 -- -- 42
2020-01-11 12:00:00 8.8 3 Noroeste 8 Noroeste 0 -- -- 45
2020-01-11 11:00:00 8.4 0 Calma 6 Noroeste 0 -- -- 47
2020-01-11 10:00:00 5.7 0 Calma 4 Sur 0 -- -- 57
2020-01-11 09:00:00 0.3 2 Nordeste 7 Sur 0 -- -- 77
2020-01-11 08:00:00 -0.3 2 Sur 6 Este 0 -- -- 78
2020-01-11 07:00:00 -0.1 3 Sudeste 8 Sudeste 0 -- -- 82
2020-01-11 06:00:00 -0.3 5 Sudeste 14 Norte 0 -- -- 86
2020-01-11 05:00:00 0.4 9 Norte 15 Nordeste 0 -- -- 83
2020-01-11 04:00:00 -0.7 3 Nordeste 10 Nordeste 0 -- -- 88
2020-01-11 03:00:00 1.2 3 Sur 9 Norte 0 -- -- 82
2020-01-11 02:00:00 0.4 0 Calma 8 Sudeste 0 -- -- 86
2020-01-11 01:00:00 1.2 3 Este 21 Norte 0 -- -- 84
2020-01-11 00:00:00 2.6 14 Norte 23 Norte 0 -- -- 82
2020-01-10 23:00:00 2.9 14 Norte 25 Norte 0 -- -- 83
2020-01-10 22:00:00 2.9 13 Norte 28 Norte 0 -- -- 84
2020-01-10 21:00:00 3 13 Norte 24 Norte 0 -- -- 83
2020-01-10 20:00:00 3.2 14 Norte 23 Norte 0 -- -- 80
2020-01-10 19:00:00 3.3 14 Norte 30 Norte 0 -- -- 85
2020-01-10 18:00:00 3.4 17 Norte 31 Norte 0 -- -- 86
2020-01-10 17:00:00 4 22 Norte 41 Norte 0 -- -- 82
2020-01-10 16:00:00 4.8 23 Norte 44 Norte 0 -- -- 74
2020-01-10 15:00:00 4.6 26 Norte 41 Norte 0 -- -- 77
2020-01-10 14:00:00 4.8 27 Norte 47 Norte 0 -- -- 74
2020-01-10 13:00:00 4.9 22 Norte 38 Norte 0 -- -- 73
2020-01-10 12:00:00 3.8 17 Norte 31 Norte 0 -- -- 78
2020-01-10 11:00:00 3.4 16 Norte 29 Norte 0 -- -- 79
2020-01-10 10:00:00 2.4 10 Norte 17 Norte 0 -- -- 83
2020-01-10 09:00:00 1.6 9 Norte 26 Noroeste 0 -- -- 87
2020-01-10 08:00:00 1.5 2 Noroeste 9 Nordeste 0 -- -- 89
2020-01-10 07:00:00 2.3 4 Norte 22 Norte 0 -- -- 83
2020-01-10 06:00:00 2.7 8 Norte 21 Norte 0 -- -- 84
2020-01-10 05:00:00 2.8 12 Norte 21 Norte 0 -- -- 91
2020-01-10 04:00:00 2.6 7 Norte 15 Nordeste 0.6 -- -- 96
2020-01-10 03:00:00 2.8 12 Norte 26 Norte 2.6 -- -- 96
2020-01-10 02:00:00 3.4 4 Oeste 28 Nordeste 2.2 -- -- 95
2020-01-10 01:00:00 3.8 13 Norte 29 Norte 0 -- -- 94
2020-01-10 00:00:00 7 6 Noroeste 34 Sudoeste 0 -- -- 89
2020-01-09 23:00:00 7.5 20 Sudoeste 31 Sudoeste 0 -- -- 87
2020-01-09 22:00:00 7.4 13 Sudoeste 21 Sudoeste 0 -- -- 86
2020-01-09 21:00:00 7.7 6 Oeste 18 Sudoeste 0 -- -- 86
2020-01-09 20:00:00 8.3 9 Oeste 32 Sudoeste 0 -- -- 82
2020-01-09 19:00:00 8.2 7 Sudoeste 16 Oeste 0 -- -- 80
2020-01-09 18:00:00 8.6 3 Sur 32 Sudoeste 0 -- -- 75
2020-01-09 17:00:00 9.2 7 Sur 28 Sudoeste 0 -- -- 77
2020-01-09 16:00:00 10.6 12 Sur 28 Oeste 0 -- -- 65
2020-01-09 15:00:00 12.1 13 Sudoeste 27 Sudeste 0 -- -- 55
2020-01-09 14:00:00 11.8 12 Sudoeste 34 Noroeste 0 -- -- 52
2020-01-09 13:00:00 11.5 9 Sudoeste 28 Sur 0 -- -- 61
2020-01-09 12:00:00 9.9 5 Sur 33 Sudoeste 0 -- -- 59
2020-01-09 11:00:00 11.3 6 Oeste 25 Sudoeste 0 -- -- 50
2020-01-09 10:00:00 9 5 Noroeste 17 Este 0 -- -- 57
2020-01-09 09:00:00 5.8 9 Sudeste 20 Sudeste 0 -- -- 67
2020-01-09 08:00:00 5.9 11 Sur 26 Sur 0 -- -- 67
2020-01-09 07:00:00 5.4 6 Sudeste 14 Este 0 -- -- 69
2020-01-09 06:00:00 6.4 2 Nordeste 26 Sudeste 0 -- -- 65
2020-01-09 05:00:00 5.7 3 Sudeste 30 Este 0 -- -- 69
2020-01-09 04:00:00 7 14 Este 22 Sudeste 0 -- -- 67
2020-01-09 03:00:00 5.5 2 Sur 21 Sudeste 0 -- -- 73
2020-01-09 02:00:00 7.7 15 Este 28 Este 0 -- -- 71
2020-01-09 01:00:00 6.9 17 Sudeste 32 Sudeste 0 -- -- 75
2020-01-09 00:00:00 4.6 4 Sur 17 Este 0 -- -- 81
2020-01-08 23:00:00 3.3 3 Sur 10 Sudeste 0 -- -- 90
2020-01-08 22:00:00 2.8 3 Sudeste 6 Sudeste 0 -- -- 92
2020-01-08 21:00:00 3.5 2 Sudeste 12 Sudeste 0 -- -- 91
2020-01-08 20:00:00 2.8 3 Sudeste 9 Sudeste 0 -- -- 92
2020-01-08 19:00:00 3.2 0 Calma 7 Sudoeste 0 -- -- 90
2020-01-08 18:00:00 6.1 4 Sudoeste 6 Sudoeste 0 -- -- 85
2020-01-08 17:00:00 10.8 5 Noroeste 12 Norte 0 -- -- 70
2020-01-08 16:00:00 11.8 8 Norte 14 Noroeste 0 -- -- 66
2020-01-08 15:00:00 12.5 9 Noroeste 16 Noroeste 0 -- -- 64
2020-01-08 14:00:00 12.1 10 Norte 18 Norte 0 -- -- 66
2020-01-08 13:00:00 11.7 11 Norte 20 Nordeste 0 -- -- 68
2020-01-08 12:00:00 11.6 13 Nordeste 20 Nordeste 0 -- -- 68
2020-01-08 11:00:00 12.6 3 Norte 8 Norte 0 -- -- 64
2020-01-08 10:00:00 10.5 0 Calma 9 Nordeste 0 -- -- 71
2020-01-08 09:00:00 4.6 0 Calma 6 Sudoeste 0 -- -- 86
2020-01-08 08:00:00 3.3 0 Calma 8 Nordeste 0 -- -- 93
2020-01-08 07:00:00 3.5 5 Sudoeste 9 Sudoeste 0 -- -- 92
2020-01-08 06:00:00 2.9 0 Calma 5 Sudeste 0 -- -- 96
2020-01-08 05:00:00 2.5 0 Calma 9 Sudeste 0 -- -- 92
2020-01-08 04:00:00 2.3 0 Calma 8 Sudoeste 0 -- -- 89
2020-01-08 03:00:00 2.7 3 Sur 5 Sur 0 -- -- 88
2020-01-08 02:00:00 2.4 0 Calma 6 Sudeste 0 -- -- 88
2020-01-08 01:00:00 2.7 2 Sudoeste 5 Sudeste 0 -- -- 87
2020-01-08 00:00:00 2.6 0 Calma 6 Sudeste 0 -- -- 88
2020-01-07 23:00:00 3.5 4 Sudeste 8 Sudeste 0 -- -- 81
2020-01-07 22:00:00 6.1 2 Sur 9 Sudoeste 0 -- -- 66
2020-01-07 21:00:00 4.5 2 Sudoeste 6 Sudoeste 0 -- -- 69
2020-01-07 20:00:00 3.4 0 Calma 7 Sudeste 0 -- -- 81
2020-01-07 19:00:00 3.9 2 Sudeste 6 Sudoeste 0 -- -- 78
2020-01-07 18:00:00 7 4 Sudoeste 7 Sudoeste 0 -- -- 65
2020-01-07 17:00:00 12.8 4 Sudoeste 6 Sudoeste 0 -- -- 43
2020-01-07 16:00:00 16.6 4 Noroeste 14 Norte 0 -- -- 31
2020-01-07 15:00:00 14.4 9 Norte 15 Norte 0 -- -- 30
2020-01-07 14:00:00 13.9 7 Norte 10 Norte 0 -- -- 27
2020-01-07 13:00:00 15.3 3 Norte 6 Nordeste 0 -- -- 19
2020-01-07 12:00:00 15.8 2 Sudeste 6 Sudeste 0 -- -- 19
2020-01-07 11:00:00 13.6 5 Sudeste 7 Sudeste 0 -- -- 27
2020-01-07 10:00:00 9.2 0 Calma 6 Sudeste 0 -- -- 39
2020-01-07 09:00:00 -0.3 2 Sur 9 Sudeste 0 -- -- 58
2020-01-07 08:00:00 -1 3 Sudeste 5 Sudeste 0 -- -- 61
2020-01-07 07:00:00 -1.1 4 Sudeste 7 Sudeste 0 -- -- 63
2020-01-07 06:00:00 -0.1 2 Sur 8 Sudeste 0 -- -- 58
2020-01-07 05:00:00 0.7 4 Sur 10 Sudeste 0 -- -- 57
2020-01-07 04:00:00 0.6 2 Sur 10 Sudeste 0 -- -- 63
2020-01-07 03:00:00 -0.5 4 Sudeste 9 Sudeste 0 -- -- 70
2020-01-07 02:00:00 -0.4 5 Sudeste 11 Sur 0 -- -- 69
2020-01-07 01:00:00 0.2 3 Sudeste 10 Sudeste 0 -- -- 70
2020-01-07 00:00:00 0.4 2 Sur 8 Sudeste 0 -- -- 70
2020-01-06 23:00:00 0.4 0 Calma 5 Sudeste 0 -- -- 72
2020-01-06 22:00:00 0.4 0 Calma 6 Nordeste 0 -- -- 71
2020-01-06 21:00:00 1.5 4 Sudeste 9 Sudoeste 0 -- -- 68
2020-01-06 20:00:00 2 3 Oeste 6 Sur 0 -- -- 70
2020-01-06 19:00:00 3.6 4 Sudeste 8 Este 0 -- -- 64
2020-01-06 18:00:00 6.2 7 Sudeste 11 Sudeste 0 -- -- 57
2020-01-06 17:00:00 13.5 4 Sudoeste 12 Sudoeste 0 -- -- 41
2020-01-06 16:00:00 16.9 5 Sudoeste 15 Oeste 0 -- -- 32
2020-01-06 15:00:00 15.9 5 Oeste 18 Sudoeste 0 -- -- 30
2020-01-06 14:00:00 15.2 11 Sudoeste 21 Sudoeste 0 -- -- 28
2020-01-06 13:00:00 15 10 Sudoeste 22 Sudoeste 0 -- -- 24
2020-01-06 12:00:00 15.8 4 Oeste 14 Sudoeste 0 -- -- 24
2020-01-06 11:00:00 13.6 5 Sudeste 14 Sudeste 0 -- -- 29
2020-01-06 10:00:00 9.2 8 Sudeste 12 Sudeste 0 -- -- 36